Flight Track Log - Related Links

Times and Time Zones

All times are in EDT time to prevent confusion due to time zone crossing. See the KAL1331 flight status page for this flight to view local times or setup timezone preferences in your user account.

Time Position Orientation Groundspeed Altitude Reporting Facility
EDT Latitude Longitude Course Direction KTS MPH feet Rate Location/Type
Thu 06:28:04 PM 37.5000 126.8640 145° Southeast 200 230 4,100  Level FlightAware ADS-B
Thu 06:28:24 PM 37.4830 126.8730 157° South 219 252 4,400 1,500 Climbing FlightAware ADS-B
Thu 06:28:40 PM 37.4670 126.8790 163° South 240 276 5,000 2,057 Climbing FlightAware ADS-B
Thu 06:28:59 PM 37.4440 126.8880 163° South 252 290 5,600 2,280 Climbing FlightAware ADS-B
Thu 06:29:30 PM 37.4110 126.9020 161° South 270 311 6,900 2,760 Climbing FlightAware ADS-B
Thu 06:29:49 PM 37.3840 126.9130 162° South 274 315 7,900 3,103 Climbing FlightAware ADS-B
Thu 06:29:59 PM 37.3720 126.9190 158° South 289 333 8,400 2,927 Climbing FlightAware ADS-B
Thu 06:30:30 PM 37.3370 126.9470 148° Southeast 294 338 9,900 2,400 Climbing FlightAware ADS-B
Thu 06:31:14 PM 37.2840 126.9930 145° Southeast 335 386 11,400 2,400 Climbing FlightAware ADS-B
Thu 06:31:50 PM 37.2360 127.0250 152° Southeast 333 383 13,100 1,553 Climbing FlightAware ADS-B
Thu 06:32:39 PM 37.1650 127.0340 174° South 337 388 13,600 353 Climbing FlightAware ADS-B
Thu 06:33:15 PM 37.1180 127.0400 174° South 337 388 13,600  Level FlightAware ADS-B
Thu 06:35:00 PM 37.0135 127.0671 168° South  Level Estimated
Thu 06:36:00 PM 36.9538 127.0826 168° South  Level Estimated
Thu 06:37:00 PM 36.8941 127.0981 168° South  Level Estimated
Thu 06:38:00 PM 36.8344 127.1135 168° South  Level Estimated
Thu 06:39:00 PM 36.7747 127.1289 168° South  Level Estimated
Thu 06:40:00 PM 36.7150 127.1443 168° South  Level Estimated
Thu 06:41:00 PM 36.6552 127.1597 168° South  Level Estimated
Thu 06:42:00 PM 36.5955 127.1750 168° South  Level Estimated
Thu 06:43:00 PM 36.5358 127.1903 168° South  Level Estimated
Thu 06:44:00 PM 36.4761 127.2056 168° South  Level Estimated
Thu 06:45:00 PM 36.4164 127.2208 168° South  Level Estimated
Thu 06:46:00 PM 36.3566 127.2361 168° South  Level Estimated
Thu 06:47:00 PM 36.2969 127.2513 168° South  Level Estimated
Thu 06:48:00 PM 36.2384 127.2662 168° South  Level Estimated
Thu 06:49:00 PM 36.1800 127.2810 168° South  Level Estimated
Thu 06:50:00 PM 36.1215 127.2958 168° South  Level Estimated
Thu 06:51:00 PM 36.0630 127.3106 168° South  Level Estimated
Thu 06:52:00 PM 36.0046 127.3254 168° South  Level Estimated
Thu 06:53:00 PM 35.9461 127.3402 168° South  Level Estimated
Thu 06:54:00 PM 35.8876 127.3549 168° South  Level Estimated
Thu 06:55:00 PM 35.8292 127.3696 168° South  Level Estimated
Thu 06:56:00 PM 35.7707 127.3843 168° South  Level Estimated
Thu 06:57:00 PM 35.7122 127.3990 168° South  Level Estimated
Thu 06:58:00 PM 35.6537 127.4137 168° South  Level Estimated
Thu 06:59:00 PM 35.5953 127.4283 169° South  Level Estimated
Thu 07:00:00 PM 35.5368 127.4429 169° South  Level Estimated
Thu 07:01:00 PM 35.4783 127.4575 169° South  Level Estimated
Thu 07:02:00 PM 35.4198 127.4720 169° South  Level Estimated
Thu 07:03:00 PM 35.3613 127.4866 169° South  Level Estimated
Thu 07:04:00 PM 35.3028 127.5011 169° South  Level Estimated
Thu 07:05:00 PM 35.2443 127.5156 169° South  Level Estimated
Thu 07:06:00 PM 35.1858 127.5301 169° South  Level Estimated
Thu 07:07:00 PM 35.1274 127.5445 169° South  Level Estimated
Thu 07:08:00 PM 35.0689 127.5590 169° South  Level Estimated
Thu 07:09:00 PM 35.0104 127.5734 169° South  Level Estimated
Thu 07:10:00 PM 34.9519 127.5878 169° South  Level Estimated
Thu 07:11:00 PM 34.8934 127.6022 169° South  Level Estimated
Thu 07:12:00 PM 34.8398 127.6153 169° South  Level Estimated
Thu 07:13:00 PM 34.8398 127.6153 180° South  Level Estimated

Login

Don't have an account? Register now (free) for customized features, flight alerts, and more!